sensor_id;sensor_type;location;lat;lon;timestamp;P1;durP1;ratioP1;P2;durP2;ratioP2
25870;SDS011;13689;48.590;7.752;2023-06-22T00:01:55;12.70;;;6.97;;
25870;SDS011;13689;48.590;7.752;2023-06-22T00:04:21;10.13;;;6.63;;
25870;SDS011;13689;48.590;7.752;2023-06-22T00:06:47;11.70;;;7.25;;
25870;SDS011;13689;48.590;7.752;2023-06-22T00:09:12;10.57;;;7.15;;
25870;SDS011;13689;48.590;7.752;2023-06-22T00:11:38;9.35;;;6.90;;
25870;SDS011;13689;48.590;7.752;2023-06-22T00:14:04;11.18;;;7.57;;
25870;SDS011;13689;48.590;7.752;2023-06-22T00:16:31;10.77;;;7.18;;
25870;SDS011;13689;48.590;7.752;2023-06-22T00:18:57;14.90;;;7.53;;
25870;SDS011;13689;48.590;7.752;2023-06-22T00:21:25;13.25;;;7.28;;
25870;SDS011;13689;48.590;7.752;2023-06-22T00:23:51;15.00;;;7.55;;
25870;SDS011;13689;48.590;7.752;2023-06-22T00:26:17;12.85;;;8.43;;
25870;SDS011;13689;48.590;7.752;2023-06-22T00:28:43;13.82;;;7.80;;
25870;SDS011;13689;48.590;7.752;2023-06-22T00:31:08;10.32;;;7.25;;
25870;SDS011;13689;48.590;7.752;2023-06-22T00:33:34;10.55;;;7.88;;
25870;SDS011;13689;48.590;7.752;2023-06-22T00:35:59;16.33;;;7.70;;
25870;SDS011;13689;48.590;7.752;2023-06-22T00:38:25;11.10;;;7.45;;
25870;SDS011;13689;48.590;7.752;2023-06-22T00:40:50;13.18;;;8.23;;
25870;SDS011;13689;48.590;7.752;2023-06-22T00:43:16;11.07;;;8.00;;
25870;SDS011;13689;48.590;7.752;2023-06-22T00:45:42;12.82;;;8.50;;
25870;SDS011;13689;48.590;7.752;2023-06-22T00:48:08;11.80;;;7.57;;
25870;SDS011;13689;48.590;7.752;2023-06-22T00:50:33;12.43;;;7.47;;
25870;SDS011;13689;48.590;7.752;2023-06-22T00:53:05;13.07;;;7.70;;
25870;SDS011;13689;48.590;7.752;2023-06-22T00:55:33;12.52;;;7.45;;
25870;SDS011;13689;48.590;7.752;2023-06-22T00:58:03;14.52;;;7.80;;
25870;SDS011;13689;48.590;7.752;2023-06-22T01:00:30;12.23;;;7.57;;
25870;SDS011;13689;48.590;7.752;2023-06-22T01:02:57;10.32;;;7.60;;
25870;SDS011;13689;48.590;7.752;2023-06-22T01:05:23;15.38;;;7.18;;
25870;SDS011;13689;48.590;7.752;2023-06-22T01:10:53;12.65;;;7.50;;
25870;SDS011;13689;48.590;7.752;2023-06-22T01:16:02;12.75;;;8.02;;
25870;SDS011;13689;48.590;7.752;2023-06-22T01:18:32;13.50;;;7.32;;
25870;SDS011;13689;48.590;7.752;2023-06-22T01:21:01;13.38;;;7.35;;
25870;SDS011;13689;48.590;7.752;2023-06-22T01:23:37;11.77;;;7.15;;
25870;SDS011;13689;48.590;7.752;2023-06-22T01:26:18;9.85;;;6.70;;
25870;SDS011;13689;48.590;7.752;2023-06-22T01:28:45;11.60;;;6.47;;
25870;SDS011;13689;48.590;7.752;2023-06-22T01:31:23;14.10;;;7.20;;
25870;SDS011;13689;48.590;7.752;2023-06-22T01:33:51;15.20;;;7.83;;
25870;SDS011;13689;48.590;7.752;2023-06-22T01:36:20;12.27;;;7.68;;
25870;SDS011;13689;48.590;7.752;2023-06-22T01:38:47;15.03;;;7.63;;
25870;SDS011;13689;48.590;7.752;2023-06-22T01:41:14;11.35;;;7.03;;
25870;SDS011;13689;48.590;7.752;2023-06-22T01:46:07;15.50;;;7.55;;
25870;SDS011;13689;48.590;7.752;2023-06-22T01:48:33;9.75;;;7.45;;
25870;SDS011;13689;48.590;7.752;2023-06-22T01:50:59;10.95;;;7.43;;
25870;SDS011;13689;48.590;7.752;2023-06-22T01:53:26;14.00;;;7.25;;
25870;SDS011;13689;48.590;7.752;2023-06-22T01:55:51;11.13;;;6.70;;
25870;SDS011;13689;48.590;7.752;2023-06-22T01:58:17;11.43;;;7.00;;
25870;SDS011;13689;48.590;7.752;2023-06-22T02:00:53;10.50;;;7.20;;
25870;SDS011;13689;48.590;7.752;2023-06-22T02:03:33;10.05;;;6.93;;
25870;SDS011;13689;48.590;7.752;2023-06-22T02:06:05;14.30;;;7.35;;
25870;SDS011;13689;48.590;7.752;2023-06-22T02:08:41;9.88;;;6.85;;
25870;SDS011;13689;48.590;7.752;2023-06-22T02:11:13;11.40;;;6.82;;
25870;SDS011;13689;48.590;7.752;2023-06-22T02:16:09;15.25;;;7.85;;
25870;SDS011;13689;48.590;7.752;2023-06-22T02:18:36;12.57;;;7.03;;
25870;SDS011;13689;48.590;7.752;2023-06-22T02:21:02;11.68;;;7.57;;
25870;SDS011;13689;48.590;7.752;2023-06-22T02:23:28;13.70;;;7.20;;
25870;SDS011;13689;48.590;7.752;2023-06-22T02:25:53;11.63;;;7.25;;
25870;SDS011;13689;48.590;7.752;2023-06-22T02:28:19;14.00;;;7.13;;
25870;SDS011;13689;48.590;7.752;2023-06-22T02:30:45;10.10;;;7.35;;
25870;SDS011;13689;48.590;7.752;2023-06-22T02:33:10;13.82;;;7.63;;
25870;SDS011;13689;48.590;7.752;2023-06-22T02:35:36;13.00;;;7.57;;
25870;SDS011;13689;48.590;7.752;2023-06-22T02:38:03;11.73;;;7.00;;
25870;SDS011;13689;48.590;7.752;2023-06-22T02:40:29;8.75;;;5.18;;
25870;SDS011;13689;48.590;7.752;2023-06-22T02:42:55;13.27;;;7.57;;
25870;SDS011;13689;48.590;7.752;2023-06-22T02:45:23;13.23;;;7.85;;
25870;SDS011;13689;48.590;7.752;2023-06-22T02:47:48;12.50;;;8.00;;
25870;SDS011;13689;48.590;7.752;2023-06-22T02:50:14;12.95;;;7.50;;
25870;SDS011;13689;48.590;7.752;2023-06-22T02:52:40;15.63;;;8.13;;
25870;SDS011;13689;48.590;7.752;2023-06-22T02:55:06;10.25;;;7.72;;
25870;SDS011;13689;48.590;7.752;2023-06-22T02:57:33;12.05;;;8.00;;
25870;SDS011;13689;48.590;7.752;2023-06-22T02:59:59;15.95;;;8.25;;
25870;SDS011;13689;48.590;7.752;2023-06-22T03:02:25;17.05;;;7.88;;
25870;SDS011;13689;48.590;7.752;2023-06-22T03:04:51;16.80;;;8.50;;
25870;SDS011;13689;48.590;7.752;2023-06-22T03:07:18;16.17;;;7.97;;
25870;SDS011;13689;48.590;7.752;2023-06-22T03:09:44;15.43;;;7.80;;
25870;SDS011;13689;48.590;7.752;2023-06-22T03:12:10;14.13;;;8.07;;
25870;SDS011;13689;48.590;7.752;2023-06-22T03:14:36;10.50;;;7.63;;
25870;SDS011;13689;48.590;7.752;2023-06-22T03:17:01;11.38;;;7.65;;
25870;SDS011;13689;48.590;7.752;2023-06-22T03:19:28;9.93;;;7.93;;
25870;SDS011;13689;48.590;7.752;2023-06-22T03:24:22;12.15;;;7.88;;
25870;SDS011;13689;48.590;7.752;2023-06-22T03:26:47;13.77;;;7.55;;
25870;SDS011;13689;48.590;7.752;2023-06-22T03:29:14;12.35;;;8.10;;
25870;SDS011;13689;48.590;7.752;2023-06-22T03:31:40;11.95;;;7.28;;
25870;SDS011;13689;48.590;7.752;2023-06-22T03:34:06;14.20;;;7.60;;
25870;SDS011;13689;48.590;7.752;2023-06-22T03:36:32;14.27;;;8.73;;
25870;SDS011;13689;48.590;7.752;2023-06-22T03:38:57;14.40;;;8.07;;
25870;SDS011;13689;48.590;7.752;2023-06-22T03:41:23;15.82;;;8.25;;
25870;SDS011;13689;48.590;7.752;2023-06-22T03:43:48;15.05;;;8.93;;
25870;SDS011;13689;48.590;7.752;2023-06-22T03:46:14;14.63;;;7.40;;
25870;SDS011;13689;48.590;7.752;2023-06-22T03:48:40;13.75;;;7.47;;
25870;SDS011;13689;48.590;7.752;2023-06-22T03:51:05;12.77;;;7.85;;
25870;SDS011;13689;48.590;7.752;2023-06-22T03:53:31;15.25;;;8.70;;
25870;SDS011;13689;48.590;7.752;2023-06-22T03:55:57;15.55;;;8.35;;
25870;SDS011;13689;48.590;7.752;2023-06-22T03:58:22;12.75;;;7.95;;
25870;SDS011;13689;48.590;7.752;2023-06-22T04:00:48;13.25;;;8.10;;
25870;SDS011;13689;48.590;7.752;2023-06-22T04:03:15;13.68;;;7.82;;
25870;SDS011;13689;48.590;7.752;2023-06-22T04:05:43;11.48;;;7.43;;
25870;SDS011;13689;48.590;7.752;2023-06-22T04:08:09;13.82;;;7.65;;
25870;SDS011;13689;48.590;7.752;2023-06-22T04:10:35;17.23;;;8.93;;
25870;SDS011;13689;48.590;7.752;2023-06-22T04:13:01;17.05;;;8.13;;
25870;SDS011;13689;48.590;7.752;2023-06-22T04:15:26;15.30;;;7.63;;
25870;SDS011;13689;48.590;7.752;2023-06-22T04:17:54;17.00;;;7.82;;
25870;SDS011;13689;48.590;7.752;2023-06-22T04:20:21;13.80;;;9.05;;
25870;SDS011;13689;48.590;7.752;2023-06-22T04:22:46;14.77;;;7.28;;
25870;SDS011;13689;48.590;7.752;2023-06-22T04:25:12;15.27;;;7.88;;
25870;SDS011;13689;48.590;7.752;2023-06-22T04:27:39;15.13;;;7.65;;
25870;SDS011;13689;48.590;7.752;2023-06-22T04:30:06;13.00;;;7.72;;
25870;SDS011;13689;48.590;7.752;2023-06-22T04:32:33;12.00;;;7.05;;
25870;SDS011;13689;48.590;7.752;2023-06-22T04:35:01;17.95;;;7.45;;
25870;SDS011;13689;48.590;7.752;2023-06-22T04:37:27;21.15;;;9.63;;
25870;SDS011;13689;48.590;7.752;2023-06-22T04:39:53;13.80;;;8.07;;
25870;SDS011;13689;48.590;7.752;2023-06-22T04:42:18;12.50;;;7.20;;
25870;SDS011;13689;48.590;7.752;2023-06-22T04:44:44;12.85;;;7.05;;
25870;SDS011;13689;48.590;7.752;2023-06-22T04:47:09;11.40;;;7.53;;
25870;SDS011;13689;48.590;7.752;2023-06-22T04:49:35;15.88;;;7.80;;
25870;SDS011;13689;48.590;7.752;2023-06-22T04:52:02;12.55;;;7.90;;
25870;SDS011;13689;48.590;7.752;2023-06-22T04:54:29;12.40;;;7.22;;
25870;SDS011;13689;48.590;7.752;2023-06-22T04:57:01;16.83;;;8.07;;
25870;SDS011;13689;48.590;7.752;2023-06-22T04:59:28;15.25;;;7.93;;
25870;SDS011;13689;48.590;7.752;2023-06-22T05:01:55;14.27;;;7.75;;
25870;SDS011;13689;48.590;7.752;2023-06-22T05:04:21;12.55;;;7.88;;
25870;SDS011;13689;48.590;7.752;2023-06-22T05:06:50;14.88;;;7.57;;
25870;SDS011;13689;48.590;7.752;2023-06-22T05:09:16;11.93;;;8.07;;
25870;SDS011;13689;48.590;7.752;2023-06-22T05:11:42;11.85;;;7.57;;
25870;SDS011;13689;48.590;7.752;2023-06-22T05:14:09;11.07;;;6.97;;
25870;SDS011;13689;48.590;7.752;2023-06-22T05:16:34;13.80;;;6.93;;
25870;SDS011;13689;48.590;7.752;2023-06-22T05:19:01;18.70;;;7.72;;
25870;SDS011;13689;48.590;7.752;2023-06-22T05:21:28;10.98;;;6.93;;
25870;SDS011;13689;48.590;7.752;2023-06-22T05:23:55;12.60;;;6.97;;
25870;SDS011;13689;48.590;7.752;2023-06-22T05:26:25;12.27;;;7.15;;
25870;SDS011;13689;48.590;7.752;2023-06-22T05:28:51;10.50;;;7.05;;
25870;SDS011;13689;48.590;7.752;2023-06-22T05:31:17;15.70;;;7.18;;
25870;SDS011;13689;48.590;7.752;2023-06-22T05:33:45;18.33;;;7.20;;
25870;SDS011;13689;48.590;7.752;2023-06-22T05:36:12;16.48;;;7.10;;
25870;SDS011;13689;48.590;7.752;2023-06-22T05:38:38;13.98;;;6.68;;
25870;SDS011;13689;48.590;7.752;2023-06-22T05:41:04;12.70;;;7.10;;
25870;SDS011;13689;48.590;7.752;2023-06-22T05:43:30;12.30;;;6.88;;
25870;SDS011;13689;48.590;7.752;2023-06-22T05:45:56;15.60;;;7.38;;
25870;SDS011;13689;48.590;7.752;2023-06-22T05:48:22;12.60;;;6.50;;
25870;SDS011;13689;48.590;7.752;2023-06-22T05:50:48;15.75;;;6.43;;
25870;SDS011;13689;48.590;7.752;2023-06-22T05:53:14;16.45;;;7.00;;
25870;SDS011;13689;48.590;7.752;2023-06-22T05:55:39;15.68;;;7.07;;
25870;SDS011;13689;48.590;7.752;2023-06-22T05:58:05;16.25;;;7.25;;
25870;SDS011;13689;48.590;7.752;2023-06-22T06:00:31;12.52;;;6.90;;
25870;SDS011;13689;48.590;7.752;2023-06-22T06:02:57;13.07;;;7.03;;
25870;SDS011;13689;48.590;7.752;2023-06-22T06:05:28;15.95;;;7.45;;
25870;SDS011;13689;48.590;7.752;2023-06-22T06:08:03;16.17;;;7.43;;
25870;SDS011;13689;48.590;7.752;2023-06-22T06:10:32;13.23;;;6.40;;
25870;SDS011;13689;48.590;7.752;2023-06-22T06:12:58;16.80;;;7.75;;
25870;SDS011;13689;48.590;7.752;2023-06-22T06:15:26;16.48;;;7.28;;
25870;SDS011;13689;48.590;7.752;2023-06-22T06:17:52;14.82;;;6.38;;
25870;SDS011;13689;48.590;7.752;2023-06-22T06:20:19;13.23;;;7.43;;
25870;SDS011;13689;48.590;7.752;2023-06-22T06:22:46;12.95;;;7.40;;
25870;SDS011;13689;48.590;7.752;2023-06-22T06:25:12;14.32;;;7.50;;
25870;SDS011;13689;48.590;7.752;2023-06-22T06:27:43;16.80;;;6.70;;
25870;SDS011;13689;48.590;7.752;2023-06-22T06:30:11;15.50;;;6.50;;
25870;SDS011;13689;48.590;7.752;2023-06-22T06:32:37;11.73;;;6.38;;
25870;SDS011;13689;48.590;7.752;2023-06-22T06:35:07;12.43;;;6.83;;
25870;SDS011;13689;48.590;7.752;2023-06-22T06:37:36;18.58;;;6.55;;
25870;SDS011;13689;48.590;7.752;2023-06-22T06:40:03;15.10;;;6.63;;
25870;SDS011;13689;48.590;7.752;2023-06-22T06:42:36;10.57;;;6.50;;
25870;SDS011;13689;48.590;7.752;2023-06-22T06:45:15;13.38;;;6.22;;
25870;SDS011;13689;48.590;7.752;2023-06-22T06:47:45;21.20;;;6.55;;
25870;SDS011;13689;48.590;7.752;2023-06-22T06:50:11;10.18;;;6.38;;
25870;SDS011;13689;48.590;7.752;2023-06-22T06:52:38;12.20;;;6.40;;
25870;SDS011;13689;48.590;7.752;2023-06-22T06:55:04;16.70;;;6.32;;
25870;SDS011;13689;48.590;7.752;2023-06-22T06:57:34;14.43;;;6.32;;
25870;SDS011;13689;48.590;7.752;2023-06-22T06:59:59;15.45;;;6.82;;
25870;SDS011;13689;48.590;7.752;2023-06-22T07:02:26;15.20;;;7.00;;
25870;SDS011;13689;48.590;7.752;2023-06-22T07:04:54;14.07;;;6.65;;
25870;SDS011;13689;48.590;7.752;2023-06-22T07:07:20;12.45;;;6.40;;
25870;SDS011;13689;48.590;7.752;2023-06-22T07:09:46;14.45;;;5.47;;
25870;SDS011;13689;48.590;7.752;2023-06-22T07:12:12;15.23;;;6.05;;
25870;SDS011;13689;48.590;7.752;2023-06-22T07:14:37;10.57;;;5.82;;
25870;SDS011;13689;48.590;7.752;2023-06-22T07:17:03;18.38;;;6.57;;
25870;SDS011;13689;48.590;7.752;2023-06-22T07:19:29;12.00;;;6.20;;
25870;SDS011;13689;48.590;7.752;2023-06-22T07:21:55;13.48;;;6.55;;
25870;SDS011;13689;48.590;7.752;2023-06-22T07:24:21;11.70;;;5.78;;
25870;SDS011;13689;48.590;7.752;2023-06-22T07:26:47;12.93;;;5.78;;
25870;SDS011;13689;48.590;7.752;2023-06-22T07:29:14;13.40;;;6.15;;
25870;SDS011;13689;48.590;7.752;2023-06-22T07:31:43;12.13;;;6.20;;
25870;SDS011;13689;48.590;7.752;2023-06-22T07:34:09;15.23;;;6.22;;
25870;SDS011;13689;48.590;7.752;2023-06-22T07:36:35;15.95;;;6.40;;
25870;SDS011;13689;48.590;7.752;2023-06-22T07:39:01;13.73;;;5.75;;
25870;SDS011;13689;48.590;7.752;2023-06-22T07:41:28;12.30;;;6.93;;
25870;SDS011;13689;48.590;7.752;2023-06-22T07:43:53;17.92;;;6.65;;
25870;SDS011;13689;48.590;7.752;2023-06-22T07:46:19;12.93;;;6.15;;
25870;SDS011;13689;48.590;7.752;2023-06-22T07:48:45;13.40;;;5.57;;
25870;SDS011;13689;48.590;7.752;2023-06-22T07:51:10;14.52;;;5.85;;
25870;SDS011;13689;48.590;7.752;2023-06-22T07:53:37;10.80;;;5.00;;
25870;SDS011;13689;48.590;7.752;2023-06-22T07:58:32;16.60;;;5.95;;
25870;SDS011;13689;48.590;7.752;2023-06-22T08:00:58;19.33;;;6.07;;
25870;SDS011;13689;48.590;7.752;2023-06-22T08:03:23;16.77;;;6.60;;
25870;SDS011;13689;48.590;7.752;2023-06-22T08:05:49;11.60;;;4.88;;
25870;SDS011;13689;48.590;7.752;2023-06-22T08:08:15;13.05;;;5.47;;
25870;SDS011;13689;48.590;7.752;2023-06-22T08:10:41;10.40;;;5.13;;
25870;SDS011;13689;48.590;7.752;2023-06-22T08:13:07;16.73;;;7.32;;
25870;SDS011;13689;48.590;7.752;2023-06-22T08:15:33;13.52;;;5.68;;
25870;SDS011;13689;48.590;7.752;2023-06-22T08:17:59;15.95;;;6.15;;
25870;SDS011;13689;48.590;7.752;2023-06-22T08:20:25;17.83;;;6.20;;
25870;SDS011;13689;48.590;7.752;2023-06-22T08:22:51;12.40;;;5.85;;
25870;SDS011;13689;48.590;7.752;2023-06-22T08:25:19;14.48;;;5.78;;
25870;SDS011;13689;48.590;7.752;2023-06-22T08:27:45;13.63;;;6.63;;
25870;SDS011;13689;48.590;7.752;2023-06-22T08:30:15;11.63;;;6.40;;
25870;SDS011;13689;48.590;7.752;2023-06-22T08:32:43;17.45;;;6.30;;
25870;SDS011;13689;48.590;7.752;2023-06-22T08:35:09;11.80;;;5.43;;
25870;SDS011;13689;48.590;7.752;2023-06-22T08:37:35;14.07;;;7.22;;
25870;SDS011;13689;48.590;7.752;2023-06-22T08:40:02;12.90;;;6.68;;
25870;SDS011;13689;48.590;7.752;2023-06-22T08:42:30;10.60;;;5.82;;
25870;SDS011;13689;48.590;7.752;2023-06-22T08:44:56;12.93;;;6.68;;
25870;SDS011;13689;48.590;7.752;2023-06-22T08:47:22;12.50;;;7.28;;
25870;SDS011;13689;48.590;7.752;2023-06-22T08:49:48;13.93;;;7.38;;
25870;SDS011;13689;48.590;7.752;2023-06-22T08:52:14;10.63;;;5.75;;
25870;SDS011;13689;48.590;7.752;2023-06-22T08:54:39;18.58;;;8.02;;
25870;SDS011;13689;48.590;7.752;2023-06-22T08:57:05;14.23;;;6.43;;
25870;SDS011;13689;48.590;7.752;2023-06-22T08:59:31;15.10;;;5.65;;
25870;SDS011;13689;48.590;7.752;2023-06-22T09:01:57;9.85;;;5.90;;
25870;SDS011;13689;48.590;7.752;2023-06-22T09:04:23;10.73;;;6.00;;
25870;SDS011;13689;48.590;7.752;2023-06-22T09:06:49;11.38;;;6.07;;
25870;SDS011;13689;48.590;7.752;2023-06-22T09:09:17;24.48;;;7.78;;
25870;SDS011;13689;48.590;7.752;2023-06-22T09:11:43;15.23;;;7.50;;
25870;SDS011;13689;48.590;7.752;2023-06-22T09:14:10;11.40;;;5.80;;
25870;SDS011;13689;48.590;7.752;2023-06-22T09:16:36;10.45;;;5.85;;
25870;SDS011;13689;48.590;7.752;2023-06-22T09:19:02;9.98;;;5.88;;
25870;SDS011;13689;48.590;7.752;2023-06-22T09:21:27;10.18;;;5.47;;
25870;SDS011;13689;48.590;7.752;2023-06-22T09:23:54;14.00;;;6.00;;
25870;SDS011;13689;48.590;7.752;2023-06-22T09:26:20;8.48;;;5.85;;
25870;SDS011;13689;48.590;7.752;2023-06-22T09:28:46;13.98;;;5.82;;
25870;SDS011;13689;48.590;7.752;2023-06-22T09:31:12;11.40;;;5.70;;
25870;SDS011;13689;48.590;7.752;2023-06-22T09:33:39;13.60;;;6.72;;
25870;SDS011;13689;48.590;7.752;2023-06-22T09:36:05;21.67;;;6.32;;
25870;SDS011;13689;48.590;7.752;2023-06-22T09:38:34;19.17;;;7.03;;
25870;SDS011;13689;48.590;7.752;2023-06-22T09:41:01;14.70;;;6.47;;
25870;SDS011;13689;48.590;7.752;2023-06-22T09:43:27;14.43;;;5.70;;
25870;SDS011;13689;48.590;7.752;2023-06-22T09:45:53;12.95;;;5.85;;
25870;SDS011;13689;48.590;7.752;2023-06-22T09:48:18;17.67;;;6.65;;
25870;SDS011;13689;48.590;7.752;2023-06-22T09:50:44;16.02;;;6.57;;
25870;SDS011;13689;48.590;7.752;2023-06-22T09:53:10;13.88;;;6.50;;
25870;SDS011;13689;48.590;7.752;2023-06-22T09:55:35;13.68;;;6.28;;
25870;SDS011;13689;48.590;7.752;2023-06-22T09:58:01;14.57;;;6.97;;
25870;SDS011;13689;48.590;7.752;2023-06-22T10:00:26;13.63;;;6.53;;
25870;SDS011;13689;48.590;7.752;2023-06-22T10:02:52;16.20;;;7.15;;
25870;SDS011;13689;48.590;7.752;2023-06-22T10:05:18;19.55;;;7.32;;
25870;SDS011;13689;48.590;7.752;2023-06-22T10:07:43;17.42;;;6.07;;
25870;SDS011;13689;48.590;7.752;2023-06-22T10:10:10;12.93;;;6.75;;
25870;SDS011;13689;48.590;7.752;2023-06-22T10:12:42;15.02;;;6.13;;
25870;SDS011;13689;48.590;7.752;2023-06-22T10:15:10;14.88;;;5.82;;
25870;SDS011;13689;48.590;7.752;2023-06-22T10:17:36;15.55;;;5.80;;
25870;SDS011;13689;48.590;7.752;2023-06-22T10:20:02;14.70;;;5.30;;
25870;SDS011;13689;48.590;7.752;2023-06-22T10:22:37;12.32;;;5.65;;
25870;SDS011;13689;48.590;7.752;2023-06-22T10:25:04;18.83;;;7.07;;
25870;SDS011;13689;48.590;7.752;2023-06-22T10:27:30;14.15;;;5.70;;
25870;SDS011;13689;48.590;7.752;2023-06-22T10:29:56;14.02;;;5.97;;
25870;SDS011;13689;48.590;7.752;2023-06-22T10:32:22;15.20;;;6.13;;
25870;SDS011;13689;48.590;7.752;2023-06-22T10:34:48;17.80;;;5.50;;
25870;SDS011;13689;48.590;7.752;2023-06-22T10:37:13;16.48;;;6.82;;
25870;SDS011;13689;48.590;7.752;2023-06-22T10:39:39;13.32;;;5.47;;
25870;SDS011;13689;48.590;7.752;2023-06-22T10:42:04;9.93;;;5.80;;
25870;SDS011;13689;48.590;7.752;2023-06-22T10:44:30;16.08;;;5.72;;
25870;SDS011;13689;48.590;7.752;2023-06-22T10:46:56;11.77;;;5.50;;
25870;SDS011;13689;48.590;7.752;2023-06-22T10:49:21;10.00;;;5.47;;
25870;SDS011;13689;48.590;7.752;2023-06-22T10:51:47;12.15;;;6.00;;
25870;SDS011;13689;48.590;7.752;2023-06-22T10:54:13;11.77;;;5.47;;
25870;SDS011;13689;48.590;7.752;2023-06-22T10:56:39;12.82;;;5.53;;
25870;SDS011;13689;48.590;7.752;2023-06-22T10:59:05;13.63;;;5.70;;
25870;SDS011;13689;48.590;7.752;2023-06-22T11:01:30;9.98;;;6.13;;
25870;SDS011;13689;48.590;7.752;2023-06-22T11:03:58;17.88;;;6.47;;
25870;SDS011;13689;48.590;7.752;2023-06-22T11:06:23;11.70;;;5.85;;
25870;SDS011;13689;48.590;7.752;2023-06-22T11:08:49;14.85;;;6.28;;
25870;SDS011;13689;48.590;7.752;2023-06-22T11:11:15;18.45;;;5.72;;
25870;SDS011;13689;48.590;7.752;2023-06-22T11:13:42;17.25;;;6.53;;
25870;SDS011;13689;48.590;7.752;2023-06-22T11:16:09;14.75;;;6.50;;
25870;SDS011;13689;48.590;7.752;2023-06-22T11:18:35;15.20;;;6.10;;
25870;SDS011;13689;48.590;7.752;2023-06-22T11:21:00;17.50;;;5.88;;
25870;SDS011;13689;48.590;7.752;2023-06-22T11:23:26;14.77;;;5.68;;
25870;SDS011;13689;48.590;7.752;2023-06-22T11:25:52;14.33;;;5.27;;
25870;SDS011;13689;48.590;7.752;2023-06-22T11:28:19;14.98;;;5.28;;
25870;SDS011;13689;48.590;7.752;2023-06-22T11:30:44;11.38;;;5.65;;
25870;SDS011;13689;48.590;7.752;2023-06-22T11:33:10;12.85;;;5.50;;
25870;SDS011;13689;48.590;7.752;2023-06-22T11:35:35;17.65;;;6.45;;
25870;SDS011;13689;48.590;7.752;2023-06-22T11:38:01;18.33;;;5.80;;
25870;SDS011;13689;48.590;7.752;2023-06-22T11:40:28;14.90;;;6.78;;
25870;SDS011;13689;48.590;7.752;2023-06-22T11:42:54;14.93;;;6.47;;
25870;SDS011;13689;48.590;7.752;2023-06-22T11:45:20;14.00;;;6.00;;
25870;SDS011;13689;48.590;7.752;2023-06-22T11:47:46;13.90;;;6.72;;
25870;SDS011;13689;48.590;7.752;2023-06-22T11:50:12;15.68;;;6.85;;
25870;SDS011;13689;48.590;7.752;2023-06-22T11:52:37;18.35;;;6.20;;
25870;SDS011;13689;48.590;7.752;2023-06-22T11:55:03;14.07;;;6.55;;
25870;SDS011;13689;48.590;7.752;2023-06-22T11:57:32;15.38;;;6.35;;
25870;SDS011;13689;48.590;7.752;2023-06-22T12:00:02;17.52;;;7.45;;
25870;SDS011;13689;48.590;7.752;2023-06-22T12:02:49;12.27;;;7.30;;
25870;SDS011;13689;48.590;7.752;2023-06-22T12:05:20;15.07;;;7.80;;
25870;SDS011;13689;48.590;7.752;2023-06-22T12:07:47;15.90;;;7.13;;
25870;SDS011;13689;48.590;7.752;2023-06-22T12:10:13;11.60;;;6.40;;
25870;SDS011;13689;48.590;7.752;2023-06-22T12:12:38;13.05;;;6.50;;
25870;SDS011;13689;48.590;7.752;2023-06-22T12:15:08;15.05;;;6.65;;
25870;SDS011;13689;48.590;7.752;2023-06-22T12:20:00;12.02;;;6.30;;
25870;SDS011;13689;48.590;7.752;2023-06-22T12:22:27;28.13;;;7.03;;
25870;SDS011;13689;48.590;7.752;2023-06-22T12:24:52;14.43;;;6.55;;
25870;SDS011;13689;48.590;7.752;2023-06-22T12:27:18;14.35;;;6.45;;
25870;SDS011;13689;48.590;7.752;2023-06-22T12:29:45;19.77;;;6.70;;
25870;SDS011;13689;48.590;7.752;2023-06-22T12:32:11;14.27;;;6.55;;
25870;SDS011;13689;48.590;7.752;2023-06-22T12:34:41;14.38;;;6.75;;
25870;SDS011;13689;48.590;7.752;2023-06-22T12:37:07;13.40;;;6.80;;
25870;SDS011;13689;48.590;7.752;2023-06-22T12:39:36;12.13;;;5.97;;
25870;SDS011;13689;48.590;7.752;2023-06-22T12:42:02;14.68;;;6.00;;
25870;SDS011;13689;48.590;7.752;2023-06-22T12:44:27;16.83;;;6.68;;
25870;SDS011;13689;48.590;7.752;2023-06-22T12:46:53;12.05;;;5.88;;
25870;SDS011;13689;48.590;7.752;2023-06-22T12:49:18;14.82;;;6.50;;
25870;SDS011;13689;48.590;7.752;2023-06-22T12:51:44;16.63;;;6.82;;
25870;SDS011;13689;48.590;7.752;2023-06-22T12:54:10;19.13;;;6.47;;
25870;SDS011;13689;48.590;7.752;2023-06-22T12:56:36;21.02;;;7.10;;
25870;SDS011;13689;48.590;7.752;2023-06-22T12:59:03;22.05;;;7.45;;
25870;SDS011;13689;48.590;7.752;2023-06-22T13:01:30;14.20;;;6.90;;
25870;SDS011;13689;48.590;7.752;2023-06-22T13:03:56;16.05;;;7.13;;
25870;SDS011;13689;48.590;7.752;2023-06-22T13:06:23;15.65;;;6.82;;
25870;SDS011;13689;48.590;7.752;2023-06-22T13:08:48;10.65;;;6.55;;
25870;SDS011;13689;48.590;7.752;2023-06-22T13:11:14;15.82;;;6.53;;
25870;SDS011;13689;48.590;7.752;2023-06-22T13:13:39;17.20;;;6.63;;
25870;SDS011;13689;48.590;7.752;2023-06-22T13:16:05;16.75;;;6.65;;
25870;SDS011;13689;48.590;7.752;2023-06-22T13:18:31;15.38;;;6.70;;
25870;SDS011;13689;48.590;7.752;2023-06-22T13:20:58;19.92;;;7.00;;
25870;SDS011;13689;48.590;7.752;2023-06-22T13:23:25;14.68;;;6.13;;
25870;SDS011;13689;48.590;7.752;2023-06-22T13:25:51;13.10;;;6.47;;
25870;SDS011;13689;48.590;7.752;2023-06-22T13:28:16;16.05;;;7.55;;
25870;SDS011;13689;48.590;7.752;2023-06-22T13:30:42;13.80;;;6.03;;
25870;SDS011;13689;48.590;7.752;2023-06-22T13:33:10;15.38;;;5.25;;
25870;SDS011;13689;48.590;7.752;2023-06-22T13:35:36;16.77;;;5.72;;
25870;SDS011;13689;48.590;7.752;2023-06-22T13:38:02;20.20;;;6.30;;
25870;SDS011;13689;48.590;7.752;2023-06-22T13:40:28;20.92;;;5.30;;
25870;SDS011;13689;48.590;7.752;2023-06-22T13:42:55;10.68;;;4.95;;
25870;SDS011;13689;48.590;7.752;2023-06-22T13:45:21;12.18;;;5.10;;
25870;SDS011;13689;48.590;7.752;2023-06-22T13:47:47;13.40;;;4.88;;
25870;SDS011;13689;48.590;7.752;2023-06-22T13:50:12;20.20;;;6.13;;
25870;SDS011;13689;48.590;7.752;2023-06-22T13:52:38;18.63;;;6.18;;
25870;SDS011;13689;48.590;7.752;2023-06-22T13:55:05;11.07;;;5.57;;
25870;SDS011;13689;48.590;7.752;2023-06-22T13:57:32;11.20;;;5.70;;
25870;SDS011;13689;48.590;7.752;2023-06-22T13:59:58;17.98;;;5.60;;
25870;SDS011;13689;48.590;7.752;2023-06-22T14:02:25;23.55;;;5.35;;
25870;SDS011;13689;48.590;7.752;2023-06-22T14:04:51;19.27;;;5.65;;
25870;SDS011;13689;48.590;7.752;2023-06-22T14:07:17;14.00;;;5.30;;
25870;SDS011;13689;48.590;7.752;2023-06-22T14:09:44;13.45;;;5.30;;
25870;SDS011;13689;48.590;7.752;2023-06-22T14:12:10;12.25;;;5.15;;
25870;SDS011;13689;48.590;7.752;2023-06-22T14:14:36;17.50;;;5.60;;
25870;SDS011;13689;48.590;7.752;2023-06-22T14:17:01;16.63;;;5.20;;
25870;SDS011;13689;48.590;7.752;2023-06-22T14:19:28;13.05;;;5.10;;
25870;SDS011;13689;48.590;7.752;2023-06-22T14:21:53;16.48;;;4.38;;
25870;SDS011;13689;48.590;7.752;2023-06-22T14:24:19;18.10;;;5.07;;
25870;SDS011;13689;48.590;7.752;2023-06-22T14:26:45;17.63;;;5.10;;
25870;SDS011;13689;48.590;7.752;2023-06-22T14:29:10;13.15;;;5.05;;
25870;SDS011;13689;48.590;7.752;2023-06-22T14:31:36;13.65;;;5.18;;
25870;SDS011;13689;48.590;7.752;2023-06-22T14:34:02;23.08;;;5.32;;
25870;SDS011;13689;48.590;7.752;2023-06-22T14:36:28;21.55;;;4.57;;
25870;SDS011;13689;48.590;7.752;2023-06-22T14:38:54;15.30;;;4.80;;
25870;SDS011;13689;48.590;7.752;2023-06-22T14:41:19;16.35;;;4.88;;
25870;SDS011;13689;48.590;7.752;2023-06-22T14:43:49;17.48;;;5.00;;
25870;SDS011;13689;48.590;7.752;2023-06-22T14:46:15;18.35;;;6.18;;
25870;SDS011;13689;48.590;7.752;2023-06-22T14:48:43;15.55;;;4.95;;
25870;SDS011;13689;48.590;7.752;2023-06-22T14:51:09;21.15;;;7.30;;